Terminal Aerodrome Forecast
Issued by NWS

Home | Current Version | Previous Version | Text Only | Print | Product List | Glossary On
Versions: 1 2 3 4 5 6 7 8 9 10 11 12 13 14 15 16
000
FTUS46 KMFR 180002 RRA
TAFOTH
TAF
KOTH 180002Z 1800/1824 VRB03KT P6SM -SHRA SCT020 OVC030
     FM180300 VRB03KT P6SM OVC025
     FM180700 00000KT P6SM SCT010 OVC020
     FM181600 16010G20KT P6SM BKN030
     FM182000 17020G30KT P6SM SCT035 OVC080=

USA.gov is the U.S. government's official web portal to all federal, state and local government web resources and services.